Time,TemperatureF,DewpointF,PressureIn,WindDirection,WindDirectionDegrees,WindSpeedMPH,WindSpeedGustMPH,Humidity,HourlyPrecipIn,Conditions,Clouds,dailyrainin,SoftwareType,DateUTC
2013-02-08 00:00:00,32.0,31.2,29.87,ENE,57,4.0,6.0,97,0.00,,---,0.00,VWS V14.01,2013-02-08 05:00:00,
2013-02-08 00:01:00,31.9,31.1,29.86,ENE,57,6.0,7.0,97,0.00,,---,0.00,VWS V14.01,2013-02-08 05:01:00,
2013-02-08 00:06:00,31.8,30.8,29.87,ENE,57,5.0,8.0,96,0.00,,---,0.00,VWS V14.01,2013-02-08 05:06:00,
2013-02-08 00:11:00,31.7,30.7,29.86,ENE,57,4.0,6.0,96,0.00,,---,0.00,VWS V14.01,2013-02-08 05:11:00,
2013-02-08 00:16:00,31.6,30.6,29.87,ENE,57,4.0,7.0,96,0.00,,---,0.00,VWS V14.01,2013-02-08 05:16:00,
2013-02-08 00:21:00,31.5,30.5,29.87,ENE,57,3.0,5.0,96,0.00,,---,0.00,VWS V14.01,2013-02-08 05:21:00,
2013-02-08 00:26:00,31.4,30.6,29.87,ENE,57,6.0,6.0,97,0.00,,---,0.00,VWS V14.01,2013-02-08 05:26:00,
2013-02-08 00:31:00,31.3,30.3,29.88,ENE,57,4.0,8.0,96,0.00,,---,0.00,VWS V14.01,2013-02-08 05:31:00,
2013-02-08 00:36:00,31.1,30.1,29.88,ENE,57,3.0,6.0,96,0.00,,---,0.00,VWS V14.01,2013-02-08 05:36:00,
2013-02-08 00:41:00,31.1,30.1,29.88,ENE,57,3.0,4.0,96,0.00,,---,0.00,VWS V14.01,2013-02-08 05:41:00,
2013-02-08 00:46:00,31.0,30.0,29.88,ENE,57,4.0,5.0,96,0.00,,---,0.00,VWS V14.01,2013-02-08 05:46:00,
2013-02-08 00:51:00,30.9,30.1,29.87,ENE,57,6.0,6.0,97,0.00,,---,0.00,VWS V14.01,2013-02-08 05:51:00,
2013-02-08 00:56:00,30.8,30.0,29.88,ENE,57,5.0,5.0,97,0.00,,---,0.00,VWS V14.01,2013-02-08 05:56:00,
2013-02-08 01:01:00,30.8,30.0,29.87,ENE,57,4.0,4.0,97,0.00,,---,0.00,VWS V14.01,2013-02-08 06:01:00,
2013-02-08 01:06:00,30.7,30.0,29.87,ENE,57,3.0,5.0,97,0.00,,---,0.00,VWS V14.01,2013-02-08 06:06:00,
2013-02-08 01:11:00,30.7,30.0,29.87,ENE,57,6.0,6.0,97,0.00,,---,0.00,VWS V14.01,2013-02-08 06:11:00,
2013-02-08 01:16:00,30.6,29.6,29.88,ENE,57,4.0,6.0,96,0.00,,---,0.00,VWS V14.01,2013-02-08 06:16:00,
2013-02-08 01:21:00,30.5,29.5,29.88,ENE,57,4.0,6.0,96,0.00,,---,0.00,VWS V14.01,2013-02-08 06:21:00,
2013-02-08 01:26:00,30.4,29.4,29.89,ENE,57,4.0,8.0,96,0.00,,---,0.00,VWS V14.01,2013-02-08 06:26:00,
2013-02-08 01:31:00,30.2,29.2,29.89,ENE,57,3.0,6.0,96,0.00,,---,0.00,VWS V14.01,2013-02-08 06:31:00,
2013-02-08 01:36:00,30.2,29.2,29.88,ENE,57,3.0,4.0,96,0.00,,---,0.00,VWS V14.01,2013-02-08 06:36:00,
2013-02-08 01:41:00,30.1,29.1,29.88,ENE,57,4.0,4.0,96,0.00,,---,0.00,VWS V14.01,2013-02-08 06:41:00,
2013-02-08 01:46:00,30.1,29.1,29.89,ENE,57,2.0,5.0,96,0.00,,---,0.00,VWS V14.01,2013-02-08 06:46:00,
2013-02-08 01:51:00,30.1,29.1,29.89,ENE,57,4.0,6.0,96,0.00,,---,0.00,VWS V14.01,2013-02-08 06:51:00,
2013-02-08 01:56:00,30.0,29.0,29.89,ENE,57,5.0,7.0,96,0.00,,---,0.00,VWS V14.01,2013-02-08 06:56:00,
2013-02-08 02:01:00,29.9,28.9,29.89,ENE,57,5.0,6.0,96,0.00,,---,0.00,VWS V14.01,2013-02-08 07:01:00,
2013-02-08 02:06:00,29.8,28.8,29.89,ENE,57,5.0,7.0,96,0.00,,---,0.00,VWS V14.01,2013-02-08 07:06:00,
2013-02-08 02:11:00,29.7,28.7,29.89,ENE,57,3.0,5.0,96,0.00,,---,0.00,VWS V14.01,2013-02-08 07:11:00,
2013-02-08 02:16:00,29.7,28.7,29.89,ENE,57,3.0,4.0,96,0.00,,---,0.00,VWS V14.01,2013-02-08 07:16:00,
2013-02-08 02:21:00,29.6,28.6,29.89,ENE,57,3.0,8.0,96,0.00,,---,0.00,VWS V14.01,2013-02-08 07:21:00,
2013-02-08 02:26:00,29.6,28.6,29.89,ENE,57,5.0,8.0,96,0.00,,---,0.00,VWS V14.01,2013-02-08 07:26:00,
2013-02-08 02:31:00,29.5,28.5,29.89,ENE,57,7.0,8.0,96,0.00,,---,0.00,VWS V14.01,2013-02-08 07:31:00,
2013-02-08 02:36:00,29.4,28.4,29.89,ENE,57,6.0,7.0,96,0.00,,---,0.00,VWS V14.01,2013-02-08 07:36:00,
2013-02-08 02:41:00,29.3,28.3,29.89,ENE,57,4.0,6.0,96,0.00,,---,0.00,VWS V14.01,2013-02-08 07:41:00,
2013-02-08 02:46:00,29.2,28.2,29.89,ENE,57,2.0,5.0,96,0.00,,---,0.00,VWS V14.01,2013-02-08 07:46:00,
2013-02-08 02:51:00,29.2,28.2,29.89,ENE,57,3.0,6.0,96,0.00,,---,0.00,VWS V14.01,2013-02-08 07:51:00,
2013-02-08 02:56:00,29.2,28.2,29.90,ENE,57,3.0,5.0,96,0.00,,---,0.00,VWS V14.01,2013-02-08 07:56:00,
2013-02-08 03:01:00,29.2,28.2,29.90,ENE,57,4.0,6.0,96,0.00,,---,0.00,VWS V14.01,2013-02-08 08:01:00,
2013-02-08 03:06:00,29.1,28.1,29.90,ENE,57,6.0,6.0,96,0.00,,---,0.00,VWS V14.01,2013-02-08 08:06:00,
2013-02-08 03:11:00,29.0,27.8,29.90,ENE,57,3.0,7.0,95,0.00,,---,0.00,VWS V14.01,2013-02-08 08:11:00,
2013-02-08 03:16:00,28.9,27.6,29.90,ENE,57,3.0,6.0,95,0.00,,---,0.00,VWS V14.01,2013-02-08 08:16:00,
2013-02-08 03:21:00,28.8,27.5,29.91,ENE,57,5.0,6.0,95,0.00,,---,0.00,VWS V14.01,2013-02-08 08:21:00,
2013-02-08 03:26:00,28.8,27.5,29.91,ENE,57,2.0,6.0,95,0.00,,---,0.00,VWS V14.01,2013-02-08 08:26:00,
2013-02-08 03:31:00,28.7,27.5,29.91,ENE,57,5.0,5.0,95,0.00,,---,0.00,VWS V14.01,2013-02-08 08:31:00,
2013-02-08 03:36:00,28.6,27.4,29.92,ENE,57,4.0,8.0,95,0.00,,---,0.00,VWS V14.01,2013-02-08 08:36:00,
2013-02-08 03:41:00,28.5,27.2,29.92,ENE,57,4.0,7.0,95,0.00,,---,0.00,VWS V14.01,2013-02-08 08:41:00,
2013-02-08 03:46:00,28.3,27.0,29.91,ENE,57,5.0,6.0,95,0.00,,---,0.00,VWS V14.01,2013-02-08 08:46:00,
2013-02-08 03:51:00,28.2,27.0,29.92,ENE,57,5.0,6.0,95,0.00,,---,0.00,VWS V14.01,2013-02-08 08:51:00,
2013-02-08 03:56:00,28.1,26.9,29.92,ENE,57,3.0,5.0,95,0.00,,---,0.00,VWS V14.01,2013-02-08 08:56:00,
2013-02-08 04:01:00,28.1,26.9,29.92,ENE,57,3.0,5.0,95,0.00,,---,0.00,VWS V14.01,2013-02-08 09:01:00,
2013-02-08 04:06:00,28.0,27.0,29.92,ENE,57,4.0,6.0,96,0.00,,---,0.00,VWS V14.01,2013-02-08 09:06:00,
2013-02-08 04:11:00,27.9,26.7,29.92,ENE,57,4.0,5.0,95,0.00,,---,0.00,VWS V14.01,2013-02-08 09:11:00,
2013-02-08 04:16:00,27.9,26.9,29.93,ENE,57,2.0,5.0,96,0.00,,---,0.00,VWS V14.01,2013-02-08 09:16:00,
2013-02-08 04:21:00,27.9,26.9,29.93,ENE,57,5.0,5.0,96,0.00,,---,0.00,VWS V14.01,2013-02-08 09:21:00,
2013-02-08 04:26:00,27.9,26.9,29.93,ENE,57,4.0,5.0,96,0.00,,---,0.00,VWS V14.01,2013-02-08 09:26:00,
2013-02-08 04:31:00,27.8,26.8,29.93,ENE,57,3.0,6.0,96,0.00,,---,0.00,VWS V14.01,2013-02-08 09:31:00,
2013-02-08 04:36:00,27.8,26.8,29.94,ENE,57,3.0,5.0,96,0.00,,---,0.00,VWS V14.01,2013-02-08 09:36:00,
2013-02-08 04:41:00,27.8,26.8,29.94,ENE,57,2.0,5.0,96,0.00,,---,0.00,VWS V14.01,2013-02-08 09:41:00,
2013-02-08 04:46:00,27.8,26.8,29.95,ENE,57,4.0,4.0,96,0.00,,---,0.00,VWS V14.01,2013-02-08 09:46:00,
2013-02-08 04:51:00,27.8,26.8,29.95,ENE,57,4.0,7.0,96,0.00,,---,0.00,VWS V14.01,2013-02-08 09:51:00,
2013-02-08 04:56:00,27.8,26.8,29.95,ENE,57,4.0,6.0,96,0.00,,---,0.00,VWS V14.01,2013-02-08 09:56:00,
2013-02-08 05:01:00,27.7,26.7,29.95,ENE,57,3.0,5.0,96,0.00,,---,0.00,VWS V14.01,2013-02-08 10:01:00,
2013-02-08 05:06:00,27.8,26.8,29.95,ENE,57,3.0,6.0,96,0.00,,---,0.00,VWS V14.01,2013-02-08 10:06:00,
2013-02-08 05:11:00,27.8,26.8,29.96,ENE,57,3.0,7.0,96,0.00,,---,0.00,VWS V14.01,2013-02-08 10:11:00,
2013-02-08 05:16:00,27.8,26.8,29.96,ENE,57,3.0,6.0,96,0.00,,---,0.00,VWS V14.01,2013-02-08 10:16:00,
2013-02-08 05:21:00,27.8,26.8,29.97,ENE,57,3.0,5.0,96,0.00,,---,0.00,VWS V14.01,2013-02-08 10:21:00,
2013-02-08 05:26:00,27.8,26.8,29.97,ENE,57,3.0,4.0,96,0.00,,---,0.00,VWS V14.01,2013-02-08 10:26:00,
2013-02-08 05:31:00,27.8,26.8,29.97,ENE,57,3.0,5.0,96,0.00,,---,0.00,VWS V14.01,2013-02-08 10:31:00,
2013-02-08 05:36:00,27.9,26.9,29.98,ENE,57,4.0,5.0,96,0.00,,---,0.00,VWS V14.01,2013-02-08 10:36:00,
2013-02-08 05:41:00,27.9,26.9,29.98,ENE,57,5.0,6.0,96,0.00,,---,0.00,VWS V14.01,2013-02-08 10:41:00,
2013-02-08 05:46:00,27.9,26.9,29.98,ENE,57,4.0,5.0,96,0.00,,---,0.00,VWS V14.01,2013-02-08 10:46:00,
2013-02-08 05:51:00,27.9,26.9,29.99,ENE,57,6.0,6.0,96,0.00,,---,0.00,VWS V14.01,2013-02-08 10:51:00,
2013-02-08 05:56:00,28.0,27.0,29.99,ENE,57,6.0,6.0,96,0.00,,---,0.00,VWS V14.01,2013-02-08 10:56:00,
2013-02-08 06:01:00,28.0,27.3,29.99,ENE,57,4.0,6.0,97,0.00,,---,0.00,VWS V14.01,2013-02-08 11:01:00,
2013-02-08 06:06:00,28.1,27.4,29.99,ENE,57,4.0,5.0,97,0.00,,---,0.00,VWS V14.01,2013-02-08 11:06:00,
2013-02-08 06:11:00,28.1,27.4,30.00,ENE,57,6.0,6.0,97,0.00,,---,0.00,VWS V14.01,2013-02-08 11:11:00,
2013-02-08 06:16:00,28.1,27.4,30.00,ENE,57,4.0,6.0,97,0.00,,---,0.00,VWS V14.01,2013-02-08 11:16:00,
2013-02-08 06:21:00,28.1,27.4,30.00,ENE,57,5.0,6.0,97,0.00,,---,0.00,VWS V14.01,2013-02-08 11:21:00,
2013-02-08 06:26:00,28.1,27.4,30.00,ENE,57,4.0,7.0,97,0.00,,---,0.00,VWS V14.01,2013-02-08 11:26:00,
2013-02-08 06:31:00,28.1,27.4,30.00,ENE,57,6.0,8.0,97,0.00,,---,0.00,VWS V14.01,2013-02-08 11:31:00,
2013-02-08 06:36:00,28.2,27.5,30.01,ENE,57,6.0,8.0,97,0.00,,---,0.00,VWS V14.01,2013-02-08 11:36:00,
2013-02-08 06:41:00,28.3,27.6,30.01,ENE,57,7.0,8.0,97,0.00,,---,0.00,VWS V14.01,2013-02-08 11:41:00,
2013-02-08 06:46:00,28.3,27.6,30.02,ENE,57,6.0,8.0,97,0.00,,---,0.00,VWS V14.01,2013-02-08 11:46:00,
2013-02-08 06:51:00,28.3,27.6,30.02,ENE,57,6.0,10.0,97,0.00,,---,0.00,VWS V14.01,2013-02-08 11:51:00,
2013-02-08 06:56:00,28.3,27.3,30.03,ENE,57,5.0,8.0,96,0.00,,---,0.00,VWS V14.01,2013-02-08 11:56:00,
2013-02-08 07:01:00,28.3,27.3,30.03,ENE,57,4.0,7.0,96,0.00,,---,0.00,VWS V14.01,2013-02-08 12:01:00,
2013-02-08 07:06:00,28.3,27.3,30.03,ENE,57,5.0,7.0,96,0.00,,---,0.00,VWS V14.01,2013-02-08 12:06:00,
2013-02-08 07:11:00,28.3,27.3,30.04,ENE,57,6.0,7.0,96,0.00,,---,0.00,VWS V14.01,2013-02-08 12:11:00,
2013-02-08 07:16:00,28.3,27.3,30.04,ENE,57,7.0,8.0,96,0.00,,---,0.00,VWS V14.01,2013-02-08 12:16:00,
2013-02-08 07:21:00,28.3,27.3,30.04,ENE,57,3.0,8.0,96,0.00,,---,0.00,VWS V14.01,2013-02-08 12:21:00,
2013-02-08 07:26:00,28.3,27.3,30.04,ENE,57,4.0,6.0,96,0.00,,---,0.00,VWS V14.01,2013-02-08 12:26:00,
2013-02-08 07:31:00,28.4,27.4,30.05,ENE,57,6.0,6.0,96,0.00,,---,0.00,VWS V14.01,2013-02-08 12:31:00,
2013-02-08 07:36:00,28.4,27.4,30.05,ENE,57,4.0,6.0,96,0.00,,---,0.00,VWS V14.01,2013-02-08 12:36:00,
2013-02-08 07:41:00,28.4,27.4,30.06,ENE,57,5.0,6.0,96,0.00,,---,0.00,VWS V14.01,2013-02-08 12:41:00,
2013-02-08 07:46:00,28.5,27.5,30.06,ENE,57,5.0,8.0,96,0.00,,---,0.00,VWS V14.01,2013-02-08 12:46:00,
2013-02-08 07:51:00,28.5,27.8,30.07,ENE,57,5.0,7.0,97,0.00,,---,0.00,VWS V14.01,2013-02-08 12:51:00,
2013-02-08 07:56:00,28.5,27.5,30.07,ENE,57,5.0,8.0,96,0.00,,---,0.00,VWS V14.01,2013-02-08 12:56:00,
2013-02-08 08:02:00,28.5,27.5,30.08,ENE,57,6.0,8.0,96,0.00,,---,0.00,VWS V14.01,2013-02-08 13:02:00,
2013-02-08 08:07:00,28.4,27.4,30.08,ENE,57,5.0,10.0,96,0.00,,---,0.00,VWS V14.01,2013-02-08 13:07:00,
2013-02-08 08:12:00,28.4,27.4,30.09,ENE,57,4.0,8.0,96,0.00,,---,0.00,VWS V14.01,2013-02-08 13:12:00,
2013-02-08 08:17:00,28.4,27.4,30.09,ENE,57,4.0,7.0,96,0.00,,---,0.00,VWS V14.01,2013-02-08 13:17:00,
2013-02-08 08:22:00,28.4,27.4,30.09,ENE,57,5.0,6.0,96,0.00,,---,0.00,VWS V14.01,2013-02-08 13:22:00,
2013-02-08 08:27:00,28.4,27.4,30.10,ENE,57,3.0,6.0,96,0.00,,---,0.00,VWS V14.01,2013-02-08 13:27:00,
2013-02-08 08:32:00,28.4,27.1,30.10,ENE,57,5.0,8.0,95,0.00,,---,0.00,VWS V14.01,2013-02-08 13:32:00,
2013-02-08 08:37:00,28.3,27.0,30.10,ENE,57,7.0,8.0,95,0.00,,---,0.00,VWS V14.01,2013-02-08 13:37:00,
2013-02-08 08:42:00,28.2,27.0,30.11,ENE,57,11.0,11.0,95,0.00,,---,0.00,VWS V14.01,2013-02-08 13:42:00,
2013-02-08 08:47:00,28.0,26.8,30.11,ENE,57,6.0,11.0,95,0.00,,---,0.00,VWS V14.01,2013-02-08 13:47:00,
2013-02-08 08:52:00,27.8,26.6,30.11,ENE,57,8.0,10.0,95,0.00,,---,0.00,VWS V14.01,2013-02-08 13:52:00,
2013-02-08 08:57:00,27.6,26.1,30.11,ENE,57,10.0,11.0,94,0.00,,---,0.00,VWS V14.01,2013-02-08 13:57:00,
2013-02-08 09:02:00,27.5,26.0,30.12,ENE,57,7.0,12.0,94,0.00,,---,0.00,VWS V14.01,2013-02-08 14:02:00,
2013-02-08 09:07:00,27.3,25.8,30.12,ENE,57,6.0,13.0,94,0.00,,---,0.00,VWS V14.01,2013-02-08 14:07:00,
2013-02-08 09:12:00,27.2,25.5,30.13,ENE,57,8.0,10.0,93,0.00,,---,0.00,VWS V14.01,2013-02-08 14:12:00,
2013-02-08 09:17:00,27.0,25.2,30.13,ENE,57,4.0,8.0,93,0.00,,---,0.00,VWS V14.01,2013-02-08 14:17:00,
2013-02-08 09:22:00,26.9,25.1,30.13,ENE,57,6.0,6.0,93,0.00,,---,0.00,VWS V14.01,2013-02-08 14:22:00,
2013-02-08 09:27:00,27.0,25.2,30.14,ENE,57,6.0,8.0,93,0.00,,---,0.00,VWS V14.01,2013-02-08 14:27:00,
2013-02-08 09:32:00,27.0,25.2,30.14,NE,56,4.0,7.0,93,0.00,,---,0.00,VWS V14.01,2013-02-08 14:32:00,
2013-02-08 09:37:00,26.8,24.8,30.14,NE,56,6.0,7.0,92,0.00,,---,0.00,VWS V14.01,2013-02-08 14:37:00,
2013-02-08 09:42:00,26.6,24.6,30.14,NNW,347,5.0,9.0,92,0.00,,---,0.00,VWS V14.01,2013-02-08 14:42:00,
2013-02-08 09:47:00,26.4,24.1,30.14,NNE,14,6.0,9.0,91,0.00,,---,0.00,VWS V14.01,2013-02-08 14:47:00,
2013-02-08 09:52:00,26.2,23.9,30.15,North,360,7.0,9.0,91,0.00,,---,0.00,VWS V14.01,2013-02-08 14:52:00,
2013-02-08 09:57:00,26.1,23.8,30.15,North,5,6.0,9.0,91,0.00,,---,0.00,VWS V14.01,2013-02-08 14:57:00,
2013-02-08 10:02:00,25.9,23.6,30.16,North,11,8.0,9.0,91,0.00,,---,0.00,VWS V14.01,2013-02-08 15:02:00,
2013-02-08 10:07:00,26.0,23.7,30.16,North,5,7.0,7.0,91,0.00,,---,0.00,VWS V14.01,2013-02-08 15:07:00,
2013-02-08 10:12:00,26.1,23.8,30.17,North,355,7.0,7.0,91,0.00,,---,0.00,VWS V14.01,2013-02-08 15:12:00,
2013-02-08 10:17:00,26.5,24.5,30.17,North,9,6.0,6.0,92,0.00,,---,0.00,VWS V14.01,2013-02-08 15:17:00,
2013-02-08 10:22:00,26.9,24.6,30.18,North,9,6.0,6.0,91,0.00,,---,0.00,VWS V14.01,2013-02-08 15:22:00,
2013-02-08 10:27:00,27.2,24.9,30.18,North,5,7.0,7.0,91,0.00,,---,0.00,VWS V14.01,2013-02-08 15:27:00,
2013-02-08 10:32:00,27.4,25.1,30.18,NNE,17,7.0,7.0,91,0.00,,---,0.00,VWS V14.01,2013-02-08 15:32:00,
2013-02-08 10:37:00,27.5,25.0,30.18,North,360,7.0,9.0,90,0.00,,---,0.00,VWS V14.01,2013-02-08 15:37:00,
2013-02-08 10:42:00,27.4,24.6,30.18,North,355,6.0,9.0,89,0.00,,---,0.00,VWS V14.01,2013-02-08 15:42:00,
2013-02-08 10:47:00,27.0,23.9,30.18,North,5,4.0,11.0,88,0.00,,---,0.00,VWS V14.01,2013-02-08 15:47:00,
2013-02-08 10:52:00,26.6,23.5,30.18,North,5,4.0,8.0,88,0.00,,---,0.00,VWS V14.01,2013-02-08 15:52:00,
2013-02-08 10:57:00,26.8,23.7,30.19,North,9,5.0,10.0,88,0.00,,---,0.00,VWS V14.01,2013-02-08 15:57:00,
2013-02-08 11:02:00,27.1,24.0,30.19,NNE,20,6.0,10.0,88,0.00,,---,0.00,VWS V14.01,2013-02-08 16:02:00,
2013-02-08 11:07:00,27.3,24.0,30.19,NNE,17,6.0,10.0,87,0.00,,---,0.00,VWS V14.01,2013-02-08 16:07:00,
2013-02-08 11:12:00,27.6,24.2,30.19,NE,35,6.0,7.0,87,0.00,,---,0.00,VWS V14.01,2013-02-08 16:12:00,
2013-02-08 11:17:00,28.0,24.6,30.19,North,5,7.0,11.0,87,0.00,,---,0.00,VWS V14.01,2013-02-08 16:17:00,
2013-02-08 11:22:00,28.1,24.7,30.19,NNW,343,9.0,11.0,87,0.00,,---,0.00,VWS V14.01,2013-02-08 16:22:00,
2013-02-08 11:27:00,27.9,24.5,30.20,NNW,335,8.0,11.0,87,0.00,,---,0.00,VWS V14.01,2013-02-08 16:27:00,
2013-02-08 11:32:00,27.8,24.4,30.20,NNW,335,9.0,11.0,87,0.00,,---,0.00,VWS V14.01,2013-02-08 16:32:00,
2013-02-08 11:37:00,27.6,24.2,30.21,NNW,336,8.0,11.0,87,0.00,,---,0.00,VWS V14.01,2013-02-08 16:37:00,
2013-02-08 11:42:00,27.6,24.2,30.21,NNW,344,8.0,13.0,87,0.00,,---,0.00,VWS V14.01,2013-02-08 16:42:00,
2013-02-08 11:47:00,27.6,24.0,30.21,NNW,339,8.0,13.0,86,0.00,,---,0.00,VWS V14.01,2013-02-08 16:47:00,
2013-02-08 11:52:00,27.6,24.0,30.21,NW,306,7.0,10.0,86,0.00,,---,0.00,VWS V14.01,2013-02-08 16:52:00,
2013-02-08 11:57:00,27.6,24.0,30.21,NW,312,7.0,10.0,86,0.00,,---,0.00,VWS V14.01,2013-02-08 16:57:00,
2013-02-08 12:02:00,27.7,24.1,30.22,NNW,338,5.0,9.0,86,0.00,,---,0.00,VWS V14.01,2013-02-08 17:02:00,
2013-02-08 12:07:00,27.8,23.9,30.21,NW,325,8.0,11.0,85,0.00,,---,0.00,VWS V14.01,2013-02-08 17:07:00,
2013-02-08 12:12:00,27.9,24.0,30.22,NW,310,8.0,11.0,85,0.00,,---,0.00,VWS V14.01,2013-02-08 17:12:00,
2013-02-08 12:17:00,27.7,23.5,30.22,NNW,331,8.0,10.0,84,0.00,,---,0.00,VWS V14.01,2013-02-08 17:17:00,
2013-02-08 12:22:00,27.7,23.5,30.21,NW,309,10.0,12.0,84,0.00,,---,0.00,VWS V14.01,2013-02-08 17:22:00,
2013-02-08 12:27:00,27.8,23.6,30.22,NW,309,11.0,12.0,84,0.00,,---,0.00,VWS V14.01,2013-02-08 17:27:00,
2013-02-08 12:32:00,27.9,23.4,30.22,WNW,302,10.0,13.0,83,0.00,,---,0.00,VWS V14.01,2013-02-08 17:32:00,
2013-02-08 12:37:00,28.0,23.5,30.22,NW,316,7.0,11.0,83,0.00,,---,0.00,VWS V14.01,2013-02-08 17:37:00,
2013-02-08 12:42:00,28.2,23.7,30.22,NNW,336,6.0,11.0,83,0.00,,---,0.00,VWS V14.01,2013-02-08 17:42:00,
2013-02-08 12:47:00,28.4,23.9,30.22,NNW,339,6.0,10.0,83,0.00,,---,0.00,VWS V14.01,2013-02-08 17:47:00,
2013-02-08 12:52:00,28.6,23.8,30.22,NNW,327,6.0,11.0,82,0.00,,---,0.00,VWS V14.01,2013-02-08 17:52:00,
2013-02-08 12:57:00,28.7,23.9,30.22,NW,318,8.0,12.0,82,0.00,,---,0.00,VWS V14.01,2013-02-08 17:57:00,
2013-02-08 13:02:00,28.7,23.6,30.22,NW,325,8.0,14.0,81,0.00,,---,0.00,VWS V14.01,2013-02-08 18:02:00,
2013-02-08 13:07:00,28.8,24.0,30.22,NNW,340,10.0,12.0,82,0.00,,---,0.00,VWS V14.01,2013-02-08 18:07:00,
2013-02-08 13:12:00,29.0,23.9,30.22,NW,315,9.0,10.0,81,0.01,,---,0.01,VWS V14.01,2013-02-08 18:12:00,
2013-02-08 13:17:00,29.1,23.7,30.22,NW,325,7.0,13.0,80,0.01,,---,0.01,VWS V14.01,2013-02-08 18:17:00,
2013-02-08 13:22:00,29.2,23.8,30.23,NW,307,7.0,14.0,80,0.01,,---,0.01,VWS V14.01,2013-02-08 18:22:00,
2013-02-08 13:27:00,29.1,23.7,30.23,WNW,294,10.0,12.0,80,0.01,,---,0.01,VWS V14.01,2013-02-08 18:27:00,
2013-02-08 13:32:00,29.1,23.7,30.23,NW,311,8.0,14.0,80,0.01,,---,0.01,VWS V14.01,2013-02-08 18:32:00,
2013-02-08 13:37:00,29.2,23.5,30.23,WNW,302,8.0,13.0,79,0.01,,---,0.01,VWS V14.01,2013-02-08 18:37:00,
2013-02-08 13:42:00,29.4,23.7,30.22,NNW,327,8.0,12.0,79,0.01,,---,0.01,VWS V14.01,2013-02-08 18:42:00,
2013-02-08 13:47:00,29.6,24.2,30.23,North,355,10.0,13.0,80,0.01,,---,0.01,VWS V14.01,2013-02-08 18:47:00,
2013-02-08 13:52:00,29.7,24.3,30.23,WNW,300,10.0,12.0,80,0.01,,---,0.01,VWS V14.01,2013-02-08 18:52:00,
2013-02-08 13:57:00,29.6,23.9,30.23,NNW,335,12.0,13.0,79,0.01,,---,0.01,VWS V14.01,2013-02-08 18:57:00,
2013-02-08 14:02:00,29.6,23.9,30.23,NW,323,6.0,12.0,79,0.01,,---,0.01,VWS V14.01,2013-02-08 19:02:00,
2013-02-08 14:07:00,29.7,24.0,30.23,North,5,8.0,12.0,79,0.01,,---,0.01,VWS V14.01,2013-02-08 19:07:00,
2013-02-08 14:12:00,29.9,24.2,30.22,NW,308,9.0,11.0,79,0.01,,---,0.01,VWS V14.01,2013-02-08 19:12:00,
2013-02-08 14:17:00,29.9,24.2,30.23,NW,317,11.0,12.0,79,0.01,,---,0.02,VWS V14.01,2013-02-08 19:17:00,
2013-02-08 14:22:00,29.8,24.1,30.23,NW,304,8.0,10.0,79,0.01,,---,0.02,VWS V14.01,2013-02-08 19:22:00,
2013-02-08 14:27:00,29.8,24.4,30.22,NW,321,6.0,8.0,80,0.01,,---,0.02,VWS V14.01,2013-02-08 19:27:00,
2013-02-08 14:32:00,29.9,24.2,30.22,NW,315,8.0,11.0,79,0.01,,---,0.02,VWS V14.01,2013-02-08 19:32:00,
2013-02-08 14:37:00,29.9,24.2,30.23,NW,313,8.0,9.0,79,0.01,,---,0.02,VWS V14.01,2013-02-08 19:37:00,
2013-02-08 14:42:00,29.9,24.2,30.23,WNW,298,5.0,10.0,79,0.02,,---,0.03,VWS V14.01,2013-02-08 19:42:00,
2013-02-08 14:47:00,30.0,24.3,30.23,NW,309,6.0,10.0,79,0.02,,---,0.03,VWS V14.01,2013-02-08 19:47:00,
2013-02-08 14:52:00,30.2,24.5,30.23,NW,307,7.0,10.0,79,0.02,,---,0.03,VWS V14.01,2013-02-08 19:52:00,
2013-02-08 14:58:00,30.3,24.3,30.23,NW,309,6.0,10.0,78,0.02,,---,0.03,VWS V14.01,2013-02-08 19:58:00,
2013-02-08 15:03:00,30.3,24.0,30.23,NW,315,7.0,12.0,77,0.02,,---,0.03,VWS V14.01,2013-02-08 20:03:00,
2013-02-08 15:08:00,30.4,24.1,30.23,NW,313,7.0,11.0,77,0.02,,---,0.03,VWS V14.01,2013-02-08 20:08:00,
2013-02-08 15:12:00,30.4,23.8,30.23,NW,306,8.0,11.0,76,0.02,,---,0.03,VWS V14.01,2013-02-08 20:12:00,
2013-02-08 15:17:00,30.5,23.9,30.24,NW,308,9.0,13.0,76,0.02,,---,0.03,VWS V14.01,2013-02-08 20:17:00,
2013-02-08 15:22:00,30.6,24.0,30.24,NW,304,9.0,10.0,76,0.01,,---,0.03,VWS V14.01,2013-02-08 20:22:00,
2013-02-08 15:27:00,30.8,24.1,30.24,WNW,303,11.0,13.0,76,0.01,,---,0.03,VWS V14.01,2013-02-08 20:27:00,
2013-02-08 15:32:00,31.0,24.0,30.24,NW,310,9.0,11.0,75,0.01,,---,0.03,VWS V14.01,2013-02-08 20:32:00,
2013-02-08 15:37:00,31.0,24.0,30.25,NW,314,10.0,11.0,75,0.01,,---,0.03,VWS V14.01,2013-02-08 20:37:00,
2013-02-08 15:42:00,31.1,24.1,30.25,NW,309,7.0,11.0,75,0.02,,---,0.04,VWS V14.01,2013-02-08 20:42:00,
2013-02-08 15:47:00,31.0,24.0,30.25,WNW,298,9.0,12.0,75,0.01,,---,0.04,VWS V14.01,2013-02-08 20:47:00,
2013-02-08 15:52:00,31.0,24.0,30.25,NW,317,8.0,13.0,75,0.01,,---,0.04,VWS V14.01,2013-02-08 20:52:00,
2013-02-08 15:57:00,31.1,24.1,30.25,NNW,327,8.0,11.0,75,0.01,,---,0.04,VWS V14.01,2013-02-08 20:57:00,
2013-02-08 16:02:00,31.2,24.2,30.26,NW,304,8.0,9.0,75,0.01,,---,0.04,VWS V14.01,2013-02-08 21:02:00,
2013-02-08 16:07:00,31.3,24.3,30.26,NW,325,6.0,9.0,75,0.01,,---,0.04,VWS V14.01,2013-02-08 21:07:00,
2013-02-08 16:12:00,31.2,23.9,30.26,NW,310,6.0,11.0,74,0.01,,---,0.04,VWS V14.01,2013-02-08 21:12:00,
2013-02-08 16:17:00,31.1,23.8,30.26,NW,306,9.0,12.0,74,0.01,,---,0.04,VWS V14.01,2013-02-08 21:17:00,
2013-02-08 16:22:00,31.0,23.7,30.26,WNW,302,9.0,11.0,74,0.01,,---,0.04,VWS V14.01,2013-02-08 21:22:00,
2013-02-08 16:27:00,31.0,24.0,30.26,NW,309,7.0,10.0,75,0.01,,---,0.04,VWS V14.01,2013-02-08 21:27:00,
2013-02-08 16:32:00,31.1,23.8,30.26,NW,307,9.0,10.0,74,0.01,,---,0.04,VWS V14.01,2013-02-08 21:32:00,
2013-02-08 16:37:00,31.0,24.0,30.27,WNW,297,5.0,10.0,75,0.01,,---,0.04,VWS V14.01,2013-02-08 21:37:00,
2013-02-08 16:42:00,31.0,24.0,30.27,WNW,296,7.0,9.0,75,0.00,,---,0.04,VWS V14.01,2013-02-08 21:42:00,
2013-02-08 16:47:00,31.0,24.0,30.27,WNW,295,8.0,9.0,75,0.00,,---,0.04,VWS V14.01,2013-02-08 21:47:00,
2013-02-08 16:53:00,31.1,23.8,30.27,WNW,298,9.0,10.0,74,0.00,,---,0.04,VWS V14.01,2013-02-08 21:53:00,
2013-02-08 16:58:00,31.1,23.8,30.27,WNW,296,5.0,9.0,74,0.00,,---,0.04,VWS V14.01,2013-02-08 21:58:00,
2013-02-08 17:03:00,31.1,23.8,30.28,NW,309,9.0,10.0,74,0.00,,---,0.04,VWS V14.01,2013-02-08 22:03:00,
2013-02-08 17:08:00,31.0,23.7,30.27,WNW,300,7.0,10.0,74,0.00,,---,0.04,VWS V14.01,2013-02-08 22:08:00,
2013-02-08 17:13:00,30.9,23.6,30.27,WNW,303,4.0,8.0,74,0.00,,---,0.04,VWS V14.01,2013-02-08 22:13:00,
2013-02-08 17:18:00,30.8,23.8,30.28,NW,304,5.0,8.0,75,0.00,,---,0.04,VWS V14.01,2013-02-08 22:18:00,
2013-02-08 17:23:00,30.8,23.5,30.28,NW,311,5.0,8.0,74,0.00,,---,0.04,VWS V14.01,2013-02-08 22:23:00,
2013-02-08 17:28:00,30.9,23.6,30.28,WNW,302,8.0,9.0,74,0.00,,---,0.04,VWS V14.01,2013-02-08 22:28:00,
2013-02-08 17:33:00,30.8,23.2,30.28,NW,313,8.0,11.0,73,0.00,,---,0.04,VWS V14.01,2013-02-08 22:33:00,
2013-02-08 17:38:00,30.7,23.4,30.28,NW,304,5.0,11.0,74,0.00,,---,0.04,VWS V14.01,2013-02-08 22:38:00,
2013-02-08 17:43:00,30.6,23.3,30.29,NW,317,8.0,10.0,74,0.00,,---,0.04,VWS V14.01,2013-02-08 22:43:00,
2013-02-08 17:48:00,30.5,23.2,30.29,NW,315,8.0,10.0,74,0.00,,---,0.04,VWS V14.01,2013-02-08 22:48:00,
2013-02-08 17:53:00,30.3,23.0,30.29,WNW,300,8.0,10.0,74,0.00,,---,0.04,VWS V14.01,2013-02-08 22:53:00,
2013-02-08 17:58:00,30.3,23.0,30.29,WNW,300,7.0,9.0,74,0.00,,---,0.04,VWS V14.01,2013-02-08 22:58:00,
2013-02-08 18:03:00,30.2,22.9,30.30,NW,305,5.0,9.0,74,0.00,,---,0.04,VWS V14.01,2013-02-08 23:03:00,
2013-02-08 18:08:00,30.1,22.8,30.30,WNW,302,5.0,9.0,74,0.00,,---,0.04,VWS V14.01,2013-02-08 23:08:00,
2013-02-08 18:13:00,30.0,22.7,30.30,NW,312,5.0,8.0,74,0.00,,---,0.04,VWS V14.01,2013-02-08 23:13:00,
2013-02-08 18:18:00,29.8,22.5,30.31,WNW,300,8.0,9.0,74,0.00,,---,0.04,VWS V14.01,2013-02-08 23:18:00,
2013-02-08 18:23:00,29.6,22.4,30.31,WNW,300,6.0,9.0,74,0.00,,---,0.04,VWS V14.01,2013-02-08 23:23:00,
2013-02-08 18:28:00,29.5,22.2,30.31,NW,311,7.0,9.0,74,0.00,,---,0.04,VWS V14.01,2013-02-08 23:28:00,
2013-02-08 18:33:00,29.4,22.1,30.31,NW,317,4.0,8.0,74,0.00,,---,0.04,VWS V14.01,2013-02-08 23:33:00,
2013-02-08 18:38:00,29.4,22.1,30.31,NW,315,4.0,7.0,74,0.00,,---,0.04,VWS V14.01,2013-02-08 23:38:00,
2013-02-08 18:43:00,29.4,22.1,30.31,NW,314,4.0,8.0,74,0.00,,---,0.04,VWS V14.01,2013-02-08 23:43:00,
2013-02-08 18:48:00,29.3,22.1,30.31,NW,306,6.0,6.0,74,0.00,,---,0.04,VWS V14.01,2013-02-08 23:48:00,
2013-02-08 18:53:00,29.2,22.0,30.32,NW,307,4.0,5.0,74,0.00,,---,0.04,VWS V14.01,2013-02-08 23:53:00,
2013-02-08 18:58:00,28.9,21.7,30.31,NW,307,3.0,5.0,74,0.00,,---,0.04,VWS V14.01,2013-02-08 23:58:00,
2013-02-08 19:03:00,28.6,21.7,30.32,NW,323,4.0,7.0,75,0.00,,---,0.04,VWS V14.01,2013-02-09 00:03:00,
2013-02-08 19:08:00,28.3,21.4,30.31,NW,318,4.0,6.0,75,0.00,,---,0.04,VWS V14.01,2013-02-09 00:08:00,
2013-02-08 19:14:00,28.1,21.2,30.32,NW,322,5.0,6.0,75,0.00,,---,0.04,VWS V14.01,2013-02-09 00:14:00,
2013-02-08 19:19:00,27.7,21.1,30.32,NW,321,3.0,4.0,76,0.00,,---,0.04,VWS V14.01,2013-02-09 00:19:00,
2013-02-08 19:24:00,27.4,20.5,30.32,NW,321,4.0,4.0,75,0.00,,---,0.04,VWS V14.01,2013-02-09 00:24:00,
2013-02-08 19:29:00,26.8,20.6,30.32,NW,322,4.0,4.0,77,0.00,,---,0.04,VWS V14.01,2013-02-09 00:29:00,
2013-02-08 19:34:00,26.4,20.5,30.33,NW,322,3.0,4.0,78,0.00,,---,0.04,VWS V14.01,2013-02-09 00:34:00,
2013-02-08 19:39:00,26.2,20.3,30.33,NW,322,2.0,2.0,78,0.00,,---,0.04,VWS V14.01,2013-02-09 00:39:00,
2013-02-08 19:44:00,26.0,20.4,30.33,NW,321,2.0,3.0,79,0.00,,---,0.04,VWS V14.01,2013-02-09 00:44:00,
2013-02-08 19:49:00,26.1,20.5,30.33,NW,321,3.0,3.0,79,0.00,,---,0.04,VWS V14.01,2013-02-09 00:49:00,
2013-02-08 19:54:00,25.9,20.3,30.33,NW,322,2.0,3.0,79,0.00,,---,0.04,VWS V14.01,2013-02-09 00:54:00,
2013-02-08 19:59:00,25.6,20.0,30.34,NW,321,3.0,3.0,79,0.00,,---,0.04,VWS V14.01,2013-02-09 00:59:00,
2013-02-08 20:04:00,25.5,20.2,30.34,NW,322,2.0,2.0,80,0.00,,---,0.04,VWS V14.01,2013-02-09 01:04:00,
2013-02-08 20:09:00,25.4,20.1,30.34,NW,321,3.0,3.0,80,0.00,,---,0.04,VWS V14.01,2013-02-09 01:09:00,
2013-02-08 20:14:00,24.8,19.2,30.34,NW,322,3.0,3.0,79,0.00,,---,0.04,VWS V14.01,2013-02-09 01:14:00,
2013-02-08 20:19:00,24.3,19.0,30.34,NW,322,3.0,3.0,80,0.00,,---,0.04,VWS V14.01,2013-02-09 01:19:00,
2013-02-08 20:24:00,23.7,18.5,30.34,NW,322,2.0,3.0,80,0.00,,---,0.04,VWS V14.01,2013-02-09 01:24:00,
2013-02-08 20:29:00,23.4,18.7,30.35,NW,322,2.0,3.0,82,0.00,,---,0.04,VWS V14.01,2013-02-09 01:29:00,
2013-02-08 20:34:00,23.2,18.5,30.35,NW,322,2.0,3.0,82,0.00,,---,0.04,VWS V14.01,2013-02-09 01:34:00,
2013-02-08 20:39:00,23.0,18.6,30.34,NW,322,3.0,3.0,83,0.00,,---,0.04,VWS V14.01,2013-02-09 01:39:00,
2013-02-08 20:44:00,23.0,18.6,30.34,NW,322,2.0,2.0,83,0.00,,---,0.04,VWS V14.01,2013-02-09 01:44:00,
2013-02-08 20:49:00,22.9,18.5,30.34,NW,322,2.0,2.0,83,0.00,,---,0.04,VWS V14.01,2013-02-09 01:49:00,
2013-02-08 20:54:00,22.7,18.3,30.34,NW,322,0.0,0.0,83,0.00,,---,0.04,VWS V14.01,2013-02-09 01:54:00,
2013-02-08 20:59:00,22.5,18.1,30.35,NW,322,0.0,0.0,83,0.00,,---,0.04,VWS V14.01,2013-02-09 01:59:00,
2013-02-08 21:04:00,22.2,17.5,30.35,NW,322,1.0,1.0,82,0.00,,---,0.04,VWS V14.01,2013-02-09 02:04:00,
2013-02-08 21:09:00,21.8,17.2,30.35,NW,322,1.0,2.0,82,0.00,,---,0.04,VWS V14.01,2013-02-09 02:09:00,
2013-02-08 21:14:00,21.4,17.0,30.35,NW,322,1.0,2.0,83,0.00,,---,0.04,VWS V14.01,2013-02-09 02:14:00,
2013-02-08 21:19:00,21.0,16.7,30.35,NW,322,0.0,0.0,83,0.00,,---,0.04,VWS V14.01,2013-02-09 02:19:00,
2013-02-08 21:24:00,20.7,16.6,30.35,NW,322,0.0,0.0,84,0.00,,---,0.04,VWS V14.01,2013-02-09 02:24:00,
2013-02-08 21:29:00,20.5,16.7,30.35,NW,322,0.0,0.0,85,0.00,,---,0.04,VWS V14.01,2013-02-09 02:29:00,
2013-02-08 21:34:00,20.2,16.4,30.36,NW,322,2.0,2.0,85,0.00,,---,0.04,VWS V14.01,2013-02-09 02:34:00,
2013-02-08 21:39:00,19.7,15.9,30.36,NW,322,1.0,1.0,85,0.00,,---,0.04,VWS V14.01,2013-02-09 02:39:00,
2013-02-08 21:44:00,19.4,15.6,30.37,NW,322,0.0,2.0,85,0.00,,---,0.04,VWS V14.01,2013-02-09 02:44:00,
2013-02-08 21:49:00,19.1,15.3,30.37,NW,322,0.0,0.0,85,0.00,,---,0.04,VWS V14.01,2013-02-09 02:49:00,
2013-02-08 21:54:00,18.9,15.4,30.37,NW,322,0.0,0.0,86,0.00,,---,0.04,VWS V14.01,2013-02-09 02:54:00,
2013-02-08 21:59:00,18.8,15.8,30.37,NW,322,0.0,0.0,88,0.00,,---,0.04,VWS V14.01,2013-02-09 02:59:00,
2013-02-08 22:04:00,18.7,15.7,30.38,NW,322,0.0,0.0,88,0.00,,---,0.04,VWS V14.01,2013-02-09 03:04:00,
2013-02-08 22:09:00,18.5,15.6,30.38,NW,322,0.0,0.0,88,0.00,,---,0.04,VWS V14.01,2013-02-09 03:09:00,
2013-02-08 22:14:00,18.1,14.9,30.38,NW,322,0.0,0.0,87,0.00,,---,0.04,VWS V14.01,2013-02-09 03:14:00,
2013-02-08 22:19:00,17.6,14.4,30.38,NW,322,0.0,0.0,87,0.00,,---,0.04,VWS V14.01,2013-02-09 03:19:00,
2013-02-08 22:24:00,17.3,14.1,30.39,NW,322,0.0,0.0,87,0.00,,---,0.04,VWS V14.01,2013-02-09 03:24:00,
2013-02-08 22:29:00,17.0,13.8,30.39,NW,322,0.0,0.0,87,0.00,,---,0.04,VWS V14.01,2013-02-09 03:29:00,
2013-02-08 22:34:00,16.7,13.8,30.39,NW,322,0.0,0.0,88,0.00,,---,0.04,VWS V14.01,2013-02-09 03:34:00,
2013-02-08 22:39:00,16.5,13.6,30.39,NW,322,0.0,0.0,88,0.00,,---,0.04,VWS V14.01,2013-02-09 03:39:00,
2013-02-08 22:44:00,16.3,13.6,30.39,NW,322,0.0,0.0,89,0.00,,---,0.04,VWS V14.01,2013-02-09 03:44:00,
2013-02-08 22:49:00,16.0,13.3,30.39,NW,322,0.0,0.0,89,0.00,,---,0.04,VWS V14.01,2013-02-09 03:49:00,
2013-02-08 22:54:00,15.7,13.0,30.39,NW,322,0.0,0.0,89,0.00,,---,0.04,VWS V14.01,2013-02-09 03:54:00,
2013-02-08 22:59:00,15.4,12.7,30.39,NW,322,0.0,0.0,89,0.00,,---,0.04,VWS V14.01,2013-02-09 03:59:00,
2013-02-08 23:04:00,15.0,12.1,30.39,NW,322,0.0,0.0,88,0.00,,---,0.04,VWS V14.01,2013-02-09 04:04:00,
2013-02-08 23:09:00,14.3,11.1,30.39,NW,322,0.0,0.0,87,0.00,,---,0.04,VWS V14.01,2013-02-09 04:09:00,
2013-02-08 23:14:00,13.8,10.6,30.39,NW,322,0.0,0.0,87,0.00,,---,0.04,VWS V14.01,2013-02-09 04:14:00,
2013-02-08 23:19:00,13.2,9.8,30.38,NW,322,0.0,0.0,86,0.00,,---,0.04,VWS V14.01,2013-02-09 04:19:00,
2013-02-08 23:24:00,12.8,9.4,30.39,NW,322,0.0,0.0,86,0.00,,---,0.04,VWS V14.01,2013-02-09 04:24:00,
2013-02-08 23:29:00,12.2,8.6,30.38,NW,322,0.0,0.0,85,0.00,,---,0.04,VWS V14.01,2013-02-09 04:29:00,
2013-02-08 23:34:00,11.7,8.3,30.38,NW,322,1.0,2.0,86,0.00,,---,0.04,VWS V14.01,2013-02-09 04:34:00,
2013-02-08 23:39:00,11.1,7.7,30.39,NW,322,2.0,2.0,86,0.00,,---,0.04,VWS V14.01,2013-02-09 04:39:00,
2013-02-08 23:44:00,10.5,7.4,30.39,NW,322,0.0,0.0,87,0.00,,---,0.04,VWS V14.01,2013-02-09 04:44:00,
2013-02-08 23:49:00,10.0,6.9,30.39,NW,322,0.0,0.0,87,0.00,,---,0.04,VWS V14.01,2013-02-09 04:49:00,
2013-02-08 23:54:00,9.7,6.6,30.40,NW,322,0.0,0.0,87,0.00,,---,0.04,VWS V14.01,2013-02-09 04:54:00,
2013-02-08 23:59:00,9.5,6.7,30.40,NW,322,1.0,1.0,88,0.00,,---,0.00,VWS V14.01,2013-02-09 04:59:00,